createdAt,value
2019-04-14T00:02:01.020Z,995.64
2019-04-14T00:05:33.731Z,995.59
2019-04-14T00:09:12.559Z,995.53
2019-04-14T00:12:42.718Z,995.59
2019-04-14T00:16:14.115Z,995.21
2019-04-14T00:19:45.522Z,995.18
2019-04-14T00:23:15.849Z,995.04
2019-04-14T00:26:46.704Z,994.79
2019-04-14T00:30:18.775Z,994.72
2019-04-14T00:33:49.887Z,994.54
2019-04-14T00:37:29.457Z,994.77
2019-04-14T00:41:05.287Z,994.83
2019-04-14T00:44:54.161Z,994.95
2019-04-14T00:48:27.570Z,994.97
2019-04-14T00:51:59.191Z,995.1
2019-04-14T00:55:29.414Z,995.29
2019-04-14T00:59:00.580Z,995.07
2019-04-14T01:00:18.637Z,995.11
2019-04-14T01:03:50.474Z,995.21
2019-04-14T01:07:21.625Z,995.52
2019-04-14T01:10:52.001Z,995.24
2019-04-14T01:14:23.131Z,995.34
2019-04-14T01:17:53.458Z,995.74
2019-04-14T01:21:24.238Z,995.63
2019-04-14T01:24:55.308Z,995.88
2019-04-14T01:28:26.483Z,995.79
2019-04-14T01:31:57.841Z,995.64
2019-04-14T01:35:29.169Z,995.87
2019-04-14T01:39:00.364Z,995.74
2019-04-14T01:42:31.056Z,995.71
2019-04-14T01:46:09.586Z,995.69
2019-04-14T01:49:46.616Z,995.87
2019-04-14T01:53:27.157Z,995.74
2019-04-14T01:57:11.228Z,995.79
2019-04-14T02:01:06.500Z,995.5
2019-04-14T02:04:37.717Z,995.42
2019-04-14T02:08:09.075Z,995.08
2019-04-14T02:11:39.884Z,995.05
2019-04-14T02:15:11.216Z,995.11
2019-04-14T02:18:42.628Z,994.74
2019-04-14T02:22:13.828Z,994.93
2019-04-14T02:25:45.050Z,994.71
2019-04-14T02:29:15.168Z,994.62
2019-04-14T02:33:20.191Z,994.68
2019-04-14T02:37:34.562Z,994.77
2019-04-14T02:42:06.792Z,994.83
2019-04-14T02:46:23.705Z,994.97
2019-04-14T02:50:36.955Z,994.53
2019-04-14T02:54:51.923Z,994.56
2019-04-14T02:58:58.348Z,994.56
2019-04-14T03:00:41.771Z,994.52
2019-04-14T03:04:57.037Z,994.31
2019-04-14T03:09:08.001Z,994.08
2019-04-14T03:20:59.057Z,994.17
2019-04-14T03:25:30.151Z,993.82
2019-04-14T03:29:37.181Z,993.92
2019-04-14T03:34:18.528Z,993.95
2019-04-14T03:38:37.005Z,993.93
2019-04-14T03:43:06.999Z,994.29
2019-04-14T03:47:21.776Z,994.42
2019-04-14T03:55:11.367Z,994.8
2019-04-14T03:58:51.135Z,994.45
2019-04-14T04:02:22.530Z,994.67
2019-04-14T04:05:52.823Z,994.37
2019-04-14T04:09:28.271Z,994.5
2019-04-14T04:12:59.527Z,994.74
2019-04-14T04:16:39.725Z,994.84
2019-04-14T04:22:41.321Z,994.63
2019-04-14T04:26:17.489Z,994.13
2019-04-14T04:29:57.021Z,994.21
2019-04-14T04:34:40.635Z,994.24
2019-04-14T04:38:16.619Z,994.1
2019-04-14T04:41:47.267Z,993.51
2019-04-14T04:45:19.154Z,993.83
2019-04-14T04:49:01.963Z,993.78
2019-04-14T04:52:36.587Z,994.09
2019-04-14T04:56:07.899Z,994.25
2019-04-14T04:59:38.791Z,994.22
2019-04-14T05:00:15.819Z,994.15
2019-04-14T05:03:46.910Z,994.32
2019-04-14T05:07:17.231Z,994.43
2019-04-14T05:10:52.497Z,994.78
2019-04-14T05:14:31.176Z,994.54
2019-04-14T05:18:01.285Z,994.3
2019-04-14T05:21:32.131Z,994.16
2019-04-14T05:25:03.602Z,994.2
2019-04-14T05:28:33.839Z,994.39
2019-04-14T05:32:04.470Z,993.87
2019-04-14T05:35:35.743Z,993.73
2019-04-14T05:39:06.816Z,994.08
2019-04-14T05:42:36.932Z,994.22
2019-04-14T05:46:07.965Z,993.75
2019-04-14T05:49:42.474Z,994.09
2019-04-14T05:53:17.496Z,994.61
2019-04-14T05:56:47.740Z,994.79
2019-04-14T06:00:19.166Z,995.07
2019-04-14T06:03:49.656Z,995.31
2019-04-14T06:07:19.714Z,995.55
2019-04-14T06:10:49.904Z,994.55
2019-04-14T06:14:19.944Z,994.16
2019-04-14T06:17:50.056Z,994.41
2019-04-14T06:21:20.110Z,995.01
2019-04-14T06:24:50.118Z,995.2
2019-04-14T06:28:20.103Z,995.07
2019-04-14T06:31:59.561Z,995.43
2019-04-14T06:35:56.973Z,995.79
2019-04-14T06:39:29.729Z,996.33
2019-04-14T06:42:59.789Z,996.75
2019-04-14T06:46:30.056Z,996.78
2019-04-14T06:50:00.065Z,996.96
2019-04-14T06:53:30.101Z,997.5
2019-04-14T06:57:00.200Z,997.82
2019-04-14T07:00:16.210Z,998.54
2019-04-14T07:03:46.327Z,998.13
2019-04-14T07:07:16.382Z,997.7
2019-04-14T07:10:46.433Z,998.31
2019-04-14T07:14:16.591Z,997.78
2019-04-14T07:17:46.619Z,997.57
2019-04-14T07:21:16.726Z,997.39
2019-04-14T07:24:46.746Z,997.04
2019-04-14T07:28:16.781Z,997.61
2019-04-14T07:32:30.722Z,998.04
2019-04-14T07:37:34.940Z,998.06
2019-04-14T07:41:44.174Z,998.25
2019-04-14T07:45:19.993Z,998.71
2019-04-14T07:48:58.275Z,998.53
2019-04-14T07:53:14.461Z,998.69
2019-04-14T07:57:26.950Z,999.17
2019-04-14T08:01:01.913Z,999.88
2019-04-14T08:04:34.503Z,1000.15
2019-04-14T08:08:04.634Z,999.91
2019-04-14T08:11:34.799Z,998.97
2019-04-14T08:15:05.609Z,998.22
2019-04-14T08:18:35.718Z,997.49
2019-04-14T08:22:05.807Z,998.53
2019-04-14T08:25:35.863Z,999.13
2019-04-14T08:29:05.910Z,998.12
2019-04-14T08:32:36.054Z,996.71
2019-04-14T08:36:06.199Z,995.55
2019-04-14T08:39:36.268Z,995.04
2019-04-14T08:43:45.395Z,994.32
2019-04-14T08:52:12.146Z,992.87
2019-04-14T08:55:53.797Z,992.87
2019-04-14T08:59:32.666Z,992.79
2019-04-14T09:00:21.775Z,992.97
2019-04-14T09:06:16.619Z,992.73
2019-04-14T09:09:50.781Z,992.46
2019-04-14T09:13:20.888Z,992.03
2019-04-14T09:16:51.004Z,992.2
2019-04-14T09:20:21.075Z,991.91
2019-04-14T09:23:51.105Z,992.57
2019-04-14T09:27:21.217Z,992.98
2019-04-14T09:30:51.188Z,993.16
2019-04-14T09:34:21.287Z,992.8
2019-04-14T09:37:51.334Z,993.91
2019-04-14T09:41:21.433Z,993.39
2019-04-14T09:44:51.520Z,993.25
2019-04-14T09:48:21.508Z,993.2
2019-04-14T09:51:51.546Z,993.95
2019-04-14T09:55:23.476Z,993.7
2019-04-14T09:58:53.835Z,993.79
2019-04-14T10:02:23.870Z,993.49
2019-04-14T10:05:53.919Z,993.16
2019-04-14T10:09:24.055Z,992.94
2019-04-14T10:12:54.144Z,993.48
2019-04-14T10:16:24.222Z,993.29
2019-04-14T10:19:54.313Z,992.64
2019-04-14T10:23:24.382Z,992.94
2019-04-14T10:26:54.476Z,992.96
2019-04-14T10:30:24.585Z,993.36
2019-04-14T10:33:54.543Z,993.42
2019-04-14T10:37:24.669Z,992.85
2019-04-14T10:40:54.686Z,993.1
2019-04-14T10:44:24.915Z,992.88
2019-04-14T10:47:55.033Z,993.87
2019-04-14T10:51:30.200Z,994.01
2019-04-14T10:55:01.660Z,994.14
2019-04-14T10:58:32.711Z,995.13
2019-04-14T11:00:17.642Z,994.68
2019-04-14T11:03:47.656Z,995.03
2019-04-14T11:07:22.372Z,994.59
2019-04-14T11:10:52.413Z,995.55
2019-04-14T11:14:22.498Z,996.59
2019-04-14T11:17:52.659Z,996.19
2019-04-14T11:21:22.700Z,996.35
2019-04-14T11:24:52.733Z,996.19
2019-04-14T11:28:22.863Z,995.93
2019-04-14T11:32:04.039Z,995.56
2019-04-14T11:35:42.870Z,995.01
2019-04-14T11:39:14.088Z,993.75
2019-04-14T11:42:52.299Z,993.74
2019-04-14T11:46:22.900Z,993.7
2019-04-14T11:49:52.892Z,993.69
2019-04-14T11:53:23.057Z,993.97
2019-04-14T11:56:53.143Z,993.39
2019-04-14T12:00:50.227Z,992.86
2019-04-14T12:04:28.365Z,993.39
2019-04-14T12:08:07.219Z,993.77
2019-04-14T12:11:37.319Z,993.52
2019-04-14T12:15:07.726Z,993.64
2019-04-14T12:18:37.885Z,993.38
2019-04-14T12:22:08.831Z,993.61
2019-04-14T12:25:38.991Z,992.89
2019-04-14T12:29:09.740Z,993.34
2019-04-14T12:32:40.287Z,993.54
2019-04-14T12:36:11.256Z,993.58
2019-04-14T12:39:41.345Z,992.98
2019-04-14T12:43:22.872Z,992.97
2019-04-14T12:47:02.390Z,993.32
2019-04-14T12:50:35.788Z,993.14
2019-04-14T12:54:05.966Z,992.88
2019-04-14T12:57:45.457Z,993.3
2019-04-14T13:00:22.086Z,993.31
2019-04-14T13:03:53.161Z,993.63
2019-04-14T13:07:23.317Z,993.07
2019-04-14T13:10:53.559Z,993.29
2019-04-14T13:14:23.544Z,993.32
2019-04-14T13:17:53.659Z,992.86
2019-04-14T13:21:23.710Z,993.23
2019-04-14T13:24:53.850Z,993.69
2019-04-14T13:28:23.927Z,993.52
2019-04-14T13:31:54.011Z,993.44
2019-04-14T13:35:24.035Z,993.94
2019-04-14T13:38:54.109Z,992.75
2019-04-14T13:42:24.200Z,993.22
2019-04-14T13:45:54.368Z,992.6
2019-04-14T13:49:24.474Z,992.83
2019-04-14T13:52:54.590Z,992.98
2019-04-14T13:56:24.748Z,992.46
2019-04-14T13:59:54.850Z,992.62
2019-04-14T14:03:24.847Z,992.14
2019-04-14T14:06:55.895Z,992.1
2019-04-14T14:10:26.010Z,991.8
2019-04-14T14:14:02.421Z,992.07
2019-04-14T14:19:56.358Z,991.37
2019-04-14T14:23:31.567Z,991.38
2019-04-14T14:27:01.794Z,991.29
2019-04-14T14:30:31.872Z,991.41
2019-04-14T14:34:01.987Z,991.42
2019-04-14T14:37:32.088Z,991.61
2019-04-14T14:41:03.676Z,991.6
2019-04-14T14:44:38.521Z,991.42
2019-04-14T14:49:29.691Z,991.28
2019-04-14T14:53:11.491Z,991.37
2019-04-14T14:56:42.577Z,990.91
2019-04-14T15:00:23.815Z,991.3
2019-04-14T15:03:53.934Z,991.51
2019-04-14T15:07:24.968Z,991.25
2019-04-14T15:10:55.117Z,990.97
2019-04-14T15:14:25.244Z,990.82
2019-04-14T15:17:55.401Z,991
2019-04-14T15:21:25.480Z,991.04
2019-04-14T15:24:55.532Z,990.99
2019-04-14T15:28:25.661Z,991.47
2019-04-14T15:31:55.735Z,991.18
2019-04-14T15:35:25.877Z,991.28
2019-04-14T15:38:56.001Z,991.21
2019-04-14T15:42:26.083Z,991.01
2019-04-14T15:45:56.288Z,991.04
2019-04-14T15:49:26.392Z,991.37
2019-04-14T15:52:56.477Z,991.37
2019-04-14T15:56:35.770Z,991.2
2019-04-14T16:00:18.892Z,991.57
2019-04-14T16:03:54.657Z,991.55
2019-04-14T16:07:34.077Z,991.59
2019-04-14T16:13:26.087Z,991.47
2019-04-14T16:20:24.129Z,991.1
2019-04-14T16:23:54.117Z,990.76
2019-04-14T16:27:30.677Z,990.32
2019-04-14T16:33:25.480Z,990.93
2019-04-14T16:36:55.748Z,990.74
2019-04-14T16:40:25.959Z,990.91
2019-04-14T16:43:55.997Z,990.67
2019-04-14T16:47:26.083Z,990.83
2019-04-14T16:50:56.120Z,990.72
2019-04-14T16:54:39.552Z,990.7
2019-04-14T16:58:16.656Z,990.88
2019-04-14T17:00:21.774Z,990.94
2019-04-14T17:03:51.947Z,990.96
2019-04-14T17:07:21.994Z,991.27
2019-04-14T17:10:53.002Z,990.82
2019-04-14T17:14:30.120Z,991.21
2019-04-14T17:20:30.027Z,991.45
2019-04-14T17:24:10.630Z,991.42
2019-04-14T17:27:52.766Z,991.22
2019-04-14T17:31:32.301Z,991.3
2019-04-14T17:38:29.556Z,990.92
2019-04-14T17:42:20.369Z,991.06
2019-04-14T17:46:34.139Z,991.21
2019-04-14T17:50:17.951Z,990.49
2019-04-14T17:53:54.549Z,990.98
2019-04-14T17:57:59.317Z,990.84
2019-04-14T18:01:35.581Z,990.13
2019-04-14T18:05:08.924Z,989.98
2019-04-14T18:09:51.827Z,989.61
2019-04-14T18:13:28.555Z,989.06
2019-04-14T18:19:32.141Z,989.17
2019-04-14T18:23:02.169Z,989.09
2019-04-14T18:26:32.267Z,988.49
2019-04-14T18:30:22.268Z,988.55
2019-04-14T18:37:23.611Z,988.99
2019-04-14T18:41:02.813Z,989
2019-04-14T18:44:41.944Z,988.49
2019-04-14T18:48:24.376Z,988.35
2019-04-14T18:51:59.397Z,988.38
2019-04-14T18:56:06.261Z,988.72
2019-04-14T18:59:44.909Z,988.58
2019-04-14T19:00:25.766Z,988.44
2019-04-14T19:03:55.830Z,988.14
2019-04-14T19:07:25.954Z,988.23
2019-04-14T19:11:09.515Z,987.64
2019-04-14T19:14:40.283Z,987.96
2019-04-14T19:18:20.838Z,987.68
2019-04-14T19:21:50.879Z,987.42
2019-04-14T19:25:20.948Z,987.48
2019-04-14T19:28:50.998Z,987.62
2019-04-14T19:32:21.133Z,987.2
2019-04-14T19:35:51.307Z,987.38
2019-04-14T19:39:21.329Z,987.39
2019-04-14T19:42:51.447Z,987.45
2019-04-14T19:46:21.611Z,987.23
2019-04-14T19:49:51.751Z,987.13
2019-04-14T19:53:21.838Z,987.46
2019-04-14T19:56:51.999Z,986.82
2019-04-14T20:00:22.127Z,986.98
2019-04-14T20:03:52.114Z,987.04
2019-04-14T20:07:22.152Z,986.95
2019-04-14T20:10:52.223Z,986.74
2019-04-14T20:14:22.219Z,986.67
2019-04-14T20:17:59.566Z,986.51
2019-04-14T20:22:23.634Z,986.81
2019-04-14T20:26:36.989Z,987.13
2019-04-14T20:30:10.663Z,987.1
2019-04-14T20:33:40.779Z,987.44
2019-04-14T20:37:11.015Z,987.18
2019-04-14T20:40:41.043Z,987.63
2019-04-14T20:44:11.132Z,987.88
2019-04-14T20:47:41.280Z,987.25
2019-04-14T20:51:11.390Z,987.25
2019-04-14T20:54:41.439Z,986.46
2019-04-14T20:58:11.507Z,986.58
2019-04-14T21:00:15.852Z,986.29
2019-04-14T21:04:09.860Z,986.36
2019-04-14T21:07:47.945Z,986.29
2019-04-14T21:11:28.858Z,986.03
2019-04-14T21:15:08.250Z,986.38
2019-04-14T21:18:44.118Z,986.14
2019-04-14T21:22:21.049Z,986.16
2019-04-14T21:26:02.629Z,985.98
2019-04-14T21:29:48.216Z,986.39
2019-04-14T21:33:28.450Z,986.37
2019-04-14T21:37:07.848Z,986.3
2019-04-14T21:40:45.627Z,986.12
2019-04-14T21:44:15.834Z,986.42
2019-04-14T21:47:45.905Z,986.18
2019-04-14T21:51:16.056Z,986.61
2019-04-14T21:54:46.215Z,985.94
2019-04-14T21:58:22.498Z,986.19
2019-04-14T22:03:46.525Z,985.94
2019-04-14T22:07:37.581Z,986.03
2019-04-14T22:11:09.172Z,986.33
2019-04-14T22:14:39.259Z,985.77
2019-04-14T22:18:09.389Z,985.46
2019-04-14T22:21:40.403Z,985.47
2019-04-14T22:25:10.564Z,985.13
2019-04-14T22:28:40.601Z,985.11
2019-04-14T22:32:10.698Z,985.55
2019-04-14T22:35:40.834Z,985.38
2019-04-14T22:39:15.366Z,985.23
2019-04-14T22:42:45.872Z,985.33
2019-04-14T22:46:16.001Z,985.05
2019-04-14T22:49:45.956Z,985.47
2019-04-14T22:53:15.968Z,985.57
2019-04-14T22:56:46.025Z,985.12
2019-04-14T23:00:27.170Z,985.48
2019-04-14T23:04:12.692Z,985.07
2019-04-14T23:07:53.008Z,985.22
2019-04-14T23:11:48.446Z,985.1
2019-04-14T23:17:44.483Z,985.39
2019-04-14T23:21:20.111Z,985.39
2019-04-14T23:24:51.163Z,985.55
2019-04-14T23:28:21.474Z,985.64
2019-04-14T23:31:51.605Z,985.62
2019-04-14T23:35:21.624Z,985.94
2019-04-14T23:38:51.791Z,985.46
2019-04-14T23:42:21.870Z,985.53
2019-04-14T23:45:52.044Z,985.76
2019-04-14T23:49:22.184Z,985.8
2019-04-14T23:52:52.176Z,985.41
2019-04-14T23:56:22.414Z,985.89
2019-04-14T23:59:52.518Z,986.25
